Granja, Brazil
Current Conditions -  °F | °C
As of 12:00 AM on Saturday 20 Dec 2014 (Local Time) from SBPB Reporting Station
Few Clouds Few Clouds  
Wind Chill: 81°   Ceiling: Unl
Heat Index: 86°   Visibility: 6mi
Dew Point: 75°   Wind: 13mph
Humidity: 84%   Direction: 120°ESE
Pressure: 29.85"   Gusts: NA
Location:  3.12°S, 40.83°W
Report Text: SBPB 200300Z 12011KT 9999 FEW017 27/24 Q1011
Loading
Personal Weather Stations






























Interactive Weather Map New forecast layout! Learn more

10-Day Weather Forecast

Advertisements
Track Severe Weather on mobile